createdAt,value
2018-08-27T00:00:53.674Z,15.91
2018-08-27T00:03:22.017Z,16.02
2018-08-27T00:05:50.325Z,15.94
2018-08-27T00:08:20.656Z,16.07
2018-08-27T00:10:48.964Z,16.13
2018-08-27T00:13:17.295Z,16.08
2018-08-27T00:15:45.585Z,16.06
2018-08-27T00:18:13.921Z,16.09
2018-08-27T00:20:42.197Z,16.15
2018-08-27T00:23:10.513Z,16.20
2018-08-27T00:25:38.789Z,16.00
2018-08-27T00:28:07.128Z,16.04
2018-08-27T00:30:35.403Z,16.08
2018-08-27T00:33:03.721Z,15.98
2018-08-27T00:35:32.039Z,15.94
2018-08-27T00:38:00.337Z,16.03
2018-08-27T00:40:28.612Z,16.18
2018-08-27T00:42:56.983Z,16.21
2018-08-27T00:45:26.309Z,16.01
2018-08-27T00:47:54.635Z,16.05
2018-08-27T00:50:22.915Z,16.17
2018-08-27T00:52:51.313Z,16.14
2018-08-27T00:55:20.629Z,16.25
2018-08-27T00:57:48.898Z,16.14
2018-08-27T01:00:17.184Z,16.12
2018-08-27T01:02:45.433Z,16.22
2018-08-27T01:05:13.745Z,16.14
2018-08-27T01:07:42.057Z,16.21
2018-08-27T01:10:10.386Z,16.07
2018-08-27T01:12:38.669Z,16.23
2018-08-27T01:15:07.212Z,16.09
2018-08-27T01:17:35.583Z,16.18
2018-08-27T01:20:03.937Z,16.16
2018-08-27T01:22:32.269Z,16.22
2018-08-27T01:25:00.516Z,16.26
2018-08-27T01:27:28.778Z,16.38
2018-08-27T01:29:57.071Z,16.34
2018-08-27T01:32:27.581Z,16.47
2018-08-27T01:34:57.732Z,16.31
2018-08-27T01:37:27.430Z,16.27
2018-08-27T01:39:56.235Z,16.29
2018-08-27T01:42:25.430Z,16.24
2018-08-27T01:44:53.684Z,16.31
2018-08-27T01:47:21.990Z,16.33
2018-08-27T01:49:50.249Z,16.18
2018-08-27T01:52:18.596Z,16.16
2018-08-27T01:54:46.934Z,16.25
2018-08-27T01:57:15.485Z,16.32
2018-08-27T01:59:43.849Z,16.37
2018-08-27T02:02:12.152Z,16.32
2018-08-27T02:04:40.473Z,16.29
2018-08-27T02:07:08.880Z,16.23
2018-08-27T02:09:37.165Z,16.02
2018-08-27T02:12:05.501Z,16.07
2018-08-27T02:14:33.781Z,15.93
2018-08-27T02:17:02.367Z,15.84
2018-08-27T02:19:30.668Z,15.78
2018-08-27T02:21:58.997Z,15.74
2018-08-27T02:24:28.245Z,15.59
2018-08-27T02:26:56.566Z,15.26
2018-08-27T02:29:24.845Z,15.44
2018-08-27T02:31:53.145Z,15.24
2018-08-27T02:34:21.465Z,15.27
2018-08-27T02:36:51.494Z,15.29
2018-08-27T02:39:19.815Z,15.14
2018-08-27T02:41:48.070Z,15.10
2018-08-27T02:44:16.356Z,14.88
2018-08-27T02:46:44.625Z,14.84
2018-08-27T02:49:12.918Z,14.84
2018-08-27T02:51:41.187Z,14.79
2018-08-27T02:54:09.494Z,14.82
2018-08-27T02:56:38.771Z,14.78
2018-08-27T02:59:07.041Z,14.75
2018-08-27T03:01:35.317Z,14.77
2018-08-27T03:04:04.206Z,14.79
2018-08-27T03:06:32.541Z,14.87
2018-08-27T03:09:00.934Z,14.87
2018-08-27T03:11:30.298Z,14.84
2018-08-27T03:13:59.605Z,14.73
2018-08-27T03:16:27.877Z,14.90
2018-08-27T03:18:56.217Z,14.85
2018-08-27T03:21:24.494Z,14.92
2018-08-27T03:23:52.812Z,14.98
2018-08-27T03:26:21.119Z,14.71
2018-08-27T03:28:49.430Z,14.73
2018-08-27T03:31:18.670Z,14.84
2018-08-27T03:33:47.582Z,14.91
2018-08-27T03:36:16.047Z,14.91
2018-08-27T03:38:44.306Z,15.01
2018-08-27T03:41:12.589Z,15.08
2018-08-27T03:43:40.841Z,15.07
2018-08-27T03:46:09.221Z,15.14
2018-08-27T03:48:37.538Z,15.17
2018-08-27T03:51:05.843Z,15.13
2018-08-27T03:53:34.189Z,15.25
2018-08-27T03:56:02.466Z,15.31
2018-08-27T03:58:30.728Z,15.27
2018-08-27T04:00:59.018Z,15.31
2018-08-27T04:03:27.261Z,15.43
2018-08-27T04:05:55.554Z,15.49
2018-08-27T04:08:23.813Z,15.35
2018-08-27T04:10:52.090Z,15.45
2018-08-27T04:13:21.357Z,15.38
2018-08-27T04:15:49.621Z,15.43
2018-08-27T04:18:18.966Z,15.53
2018-08-27T04:20:47.224Z,15.60
2018-08-27T04:23:15.498Z,15.48
2018-08-27T04:25:43.749Z,15.32
2018-08-27T04:28:12.025Z,15.47
2018-08-27T04:30:40.298Z,15.56
2018-08-27T04:33:08.585Z,15.53
2018-08-27T04:35:36.850Z,15.62
2018-08-27T04:38:05.197Z,15.58
2018-08-27T04:40:33.461Z,15.60
2018-08-27T04:43:01.718Z,15.62
2018-08-27T04:45:29.997Z,15.28
2018-08-27T04:47:58.276Z,15.36
2018-08-27T04:50:26.546Z,15.16
2018-08-27T04:52:55.350Z,15.13
2018-08-27T04:55:24.615Z,15.15
2018-08-27T04:57:53.929Z,15.07
2018-08-27T05:00:25.241Z,15.18
2018-08-27T05:02:54.596Z,15.09
2018-08-27T05:05:22.840Z,15.04
2018-08-27T05:07:51.173Z,15.15
2018-08-27T05:10:19.431Z,15.16
2018-08-27T05:12:47.689Z,15.31
2018-08-27T05:15:16.045Z,15.24
2018-08-27T05:17:44.701Z,15.39
2018-08-27T05:20:12.957Z,15.22
2018-08-27T05:22:41.213Z,15.33
2018-08-27T05:25:09.482Z,15.28
2018-08-27T05:27:37.765Z,15.29
2018-08-27T05:30:07.117Z,15.10
2018-08-27T05:32:35.389Z,14.95
2018-08-27T05:35:03.676Z,15.02
2018-08-27T05:37:31.929Z,15.00
2018-08-27T05:40:00.274Z,15.02
2018-08-27T05:42:30.597Z,15.04
2018-08-27T05:44:58.882Z,14.83
2018-08-27T05:47:27.141Z,14.95
2018-08-27T05:49:57.476Z,14.91
2018-08-27T05:52:25.746Z,14.83
2018-08-27T05:54:53.993Z,14.69
2018-08-27T05:57:22.270Z,15.00
2018-08-27T05:59:50.554Z,14.79
2018-08-27T06:02:19.873Z,14.63
2018-08-27T06:04:48.130Z,14.63
2018-08-27T06:07:16.386Z,14.54
2018-08-27T06:09:44.657Z,14.46
2018-08-27T06:12:12.909Z,14.41
2018-08-27T06:14:41.183Z,14.30
2018-08-27T06:17:09.498Z,14.26
2018-08-27T06:19:37.755Z,14.03
2018-08-27T06:22:06.142Z,14.27
2018-08-27T06:24:34.366Z,14.23
2018-08-27T06:27:02.652Z,14.27
2018-08-27T06:29:30.897Z,14.00
2018-08-27T06:31:59.182Z,13.94
2018-08-27T06:34:27.437Z,13.96
2018-08-27T06:36:55.718Z,13.69
2018-08-27T06:39:23.992Z,13.85
2018-08-27T06:41:53.444Z,13.82
2018-08-27T06:44:21.772Z,13.76
2018-08-27T06:46:50.033Z,13.76
2018-08-27T06:49:18.310Z,13.93
2018-08-27T06:51:46.571Z,13.69
2018-08-27T06:54:14.865Z,13.89
2018-08-27T06:56:43.187Z,13.98
2018-08-27T06:59:11.454Z,14.15
2018-08-27T07:01:40.777Z,14.13
2018-08-27T07:04:13.473Z,14.19
2018-08-27T07:06:41.829Z,13.94
2018-08-27T07:09:11.074Z,13.97
2018-08-27T07:11:39.564Z,14.05
2018-08-27T07:14:08.153Z,14.13
2018-08-27T07:16:36.427Z,14.31
2018-08-27T07:19:05.821Z,14.36
2018-08-27T07:21:34.133Z,14.19
2018-08-27T07:24:05.840Z,14.31
2018-08-27T07:26:35.105Z,14.30
2018-08-27T07:29:04.481Z,14.35
2018-08-27T07:31:33.782Z,14.38
2018-08-27T07:34:02.114Z,14.36
2018-08-27T07:36:30.396Z,14.36
2018-08-27T07:38:58.719Z,14.33
2018-08-27T07:41:27.000Z,14.77
2018-08-27T07:43:56.385Z,15.13
2018-08-27T07:46:24.693Z,15.27
2018-08-27T07:48:52.993Z,15.31
2018-08-27T07:51:22.325Z,15.05
2018-08-27T07:53:50.597Z,14.86
2018-08-27T07:56:18.870Z,14.96
2018-08-27T07:58:47.161Z,15.10
2018-08-27T08:01:15.466Z,15.15
2018-08-27T08:03:43.786Z,14.72
2018-08-27T08:06:13.180Z,15.01
2018-08-27T08:08:41.496Z,15.17
2018-08-27T08:11:09.833Z,15.07
2018-08-27T08:13:38.133Z,15.21
2018-08-27T08:16:07.509Z,15.08
2018-08-27T08:18:35.793Z,15.13
2018-08-27T08:21:04.205Z,15.19
2018-08-27T08:23:37.546Z,15.39
2018-08-27T08:26:06.951Z,15.05
2018-08-27T08:28:35.198Z,14.67
2018-08-27T08:31:03.518Z,14.79
2018-08-27T08:33:31.794Z,15.01
2018-08-27T08:36:00.086Z,14.84
2018-08-27T08:38:30.490Z,15.07
2018-08-27T08:40:58.805Z,14.88
2018-08-27T08:43:27.127Z,14.77
2018-08-27T08:45:58.681Z,15.00
2018-08-27T08:48:26.955Z,14.97
2018-08-27T08:50:55.241Z,15.04
2018-08-27T08:53:23.522Z,15.12
2018-08-27T08:55:51.845Z,15.10
2018-08-27T08:58:22.129Z,15.28
2018-08-27T09:00:50.407Z,15.19
2018-08-27T09:03:18.658Z,15.15
2018-08-27T09:05:46.969Z,14.97
2018-08-27T09:08:15.400Z,15.22
2018-08-27T09:10:43.561Z,15.00
2018-08-27T09:13:12.943Z,14.96
2018-08-27T09:15:41.206Z,14.64
2018-08-27T09:18:09.510Z,14.86
2018-08-27T09:20:37.788Z,14.57
2018-08-27T09:23:06.089Z,15.02
2018-08-27T09:25:34.374Z,15.15
2018-08-27T09:28:03.665Z,15.30
2018-08-27T09:30:31.957Z,15.38
2018-08-27T09:33:00.348Z,15.16
2018-08-27T09:35:28.567Z,15.07
2018-08-27T09:37:56.873Z,15.22
2018-08-27T09:40:25.129Z,15.43
2018-08-27T09:42:54.571Z,15.24
2018-08-27T09:45:22.844Z,15.33
2018-08-27T09:47:51.182Z,15.60
2018-08-27T09:50:19.471Z,15.68
2018-08-27T09:52:47.969Z,15.47
2018-08-27T09:55:16.145Z,15.41
2018-08-27T09:57:44.406Z,15.57
2018-08-27T10:00:15.183Z,15.88
2018-08-27T10:02:43.441Z,15.78
2018-08-27T10:05:11.762Z,15.96
2018-08-27T10:07:40.102Z,16.14
2018-08-27T10:10:08.442Z,16.07
2018-08-27T10:12:36.708Z,15.99
2018-08-27T10:15:05.103Z,15.97
2018-08-27T10:17:33.301Z,15.94
2018-08-27T10:20:01.652Z,16.25
2018-08-27T10:22:29.999Z,16.05
2018-08-27T10:24:59.309Z,16.12
2018-08-27T10:27:27.601Z,16.32
2018-08-27T10:29:56.943Z,16.66
2018-08-27T10:32:25.205Z,16.54
2018-08-27T10:34:54.614Z,16.54
2018-08-27T10:37:22.962Z,16.40
2018-08-27T10:39:51.364Z,16.55
2018-08-27T10:42:19.665Z,16.52
2018-08-27T10:44:48.000Z,16.68
2018-08-27T10:47:16.290Z,17.19
2018-08-27T10:49:44.599Z,17.33
2018-08-27T10:52:12.921Z,17.67
2018-08-27T10:54:42.410Z,17.93
2018-08-27T10:57:10.718Z,18.23
2018-08-27T10:59:39.087Z,18.38
2018-08-27T11:02:08.517Z,18.54
2018-08-27T11:04:36.913Z,18.80
2018-08-27T11:07:05.205Z,19.02
2018-08-27T11:09:33.522Z,19.45
2018-08-27T11:12:01.808Z,19.89
2018-08-27T11:14:31.229Z,19.66
2018-08-27T11:16:59.622Z,19.20
2018-08-27T11:19:28.021Z,19.36
2018-08-27T11:21:57.345Z,19.43
2018-08-27T11:24:25.622Z,19.07
2018-08-27T11:26:53.937Z,18.90
2018-08-27T11:29:22.382Z,18.49
2018-08-27T11:31:50.737Z,18.60
2018-08-27T11:34:19.053Z,18.56
2018-08-27T11:36:48.361Z,18.40
2018-08-27T11:39:17.808Z,18.29
2018-08-27T11:41:47.186Z,18.19
2018-08-27T11:44:15.510Z,18.52
2018-08-27T11:46:45.919Z,18.91
2018-08-27T11:49:14.210Z,19.64
2018-08-27T11:51:42.541Z,19.82
2018-08-27T11:54:10.816Z,19.29
2018-08-27T11:56:39.145Z,19.02
2018-08-27T11:59:08.453Z,19.07
2018-08-27T12:01:36.816Z,19.05
2018-08-27T12:04:05.237Z,19.00
2018-08-27T12:06:33.526Z,19.12
2018-08-27T12:09:03.086Z,18.67
2018-08-27T12:11:31.266Z,18.74
2018-08-27T12:13:59.571Z,18.80
2018-08-27T12:16:27.862Z,19.12
2018-08-27T12:18:56.198Z,19.21
2018-08-27T12:21:24.528Z,19.06
2018-08-27T12:23:54.027Z,19.70
2018-08-27T12:26:22.210Z,19.94
2018-08-27T12:28:50.524Z,20.08
2018-08-27T12:31:18.830Z,19.95
2018-08-27T12:33:48.229Z,20.35
2018-08-27T12:36:16.501Z,20.66
2018-08-27T12:38:44.825Z,20.48
2018-08-27T12:41:13.313Z,20.77
2018-08-27T12:43:42.459Z,20.57
2018-08-27T12:46:11.717Z,20.83
2018-08-27T12:48:40.025Z,21.00
2018-08-27T12:51:08.337Z,20.80
2018-08-27T12:53:38.674Z,20.61
2018-08-27T12:56:06.997Z,21.17
2018-08-27T12:58:35.319Z,21.00
2018-08-27T13:01:05.738Z,20.86
2018-08-27T13:03:34.033Z,21.53
2018-08-27T13:06:02.347Z,21.19
2018-08-27T13:08:30.609Z,21.44
2018-08-27T13:10:58.945Z,21.42
2018-08-27T13:13:27.202Z,21.62
2018-08-27T13:15:55.513Z,20.88
2018-08-27T13:18:23.777Z,21.24
2018-08-27T13:20:52.093Z,20.71
2018-08-27T13:23:20.373Z,20.57
2018-08-27T13:25:48.786Z,20.24
2018-08-27T13:28:17.015Z,20.17
2018-08-27T13:30:45.301Z,20.01
2018-08-27T13:33:13.581Z,19.88
2018-08-27T13:35:41.910Z,19.86
2018-08-27T13:38:10.145Z,19.78
2018-08-27T13:40:38.535Z,19.94
2018-08-27T13:43:06.802Z,19.75
2018-08-27T13:45:35.143Z,19.93
2018-08-27T13:48:03.458Z,19.94
2018-08-27T13:50:31.870Z,20.00
2018-08-27T13:53:00.156Z,20.34
2018-08-27T13:55:29.489Z,20.94
2018-08-27T13:57:57.777Z,20.98
2018-08-27T14:00:26.759Z,21.67
2018-08-27T14:02:54.991Z,21.50
2018-08-27T14:05:23.701Z,21.63
2018-08-27T14:07:51.905Z,21.05
2018-08-27T14:10:20.154Z,20.22
2018-08-27T14:12:49.660Z,20.55
2018-08-27T14:15:17.992Z,20.97
2018-08-27T14:17:46.243Z,21.06
2018-08-27T14:20:15.532Z,20.92
2018-08-27T14:22:44.922Z,20.59
2018-08-27T14:25:13.236Z,20.20
2018-08-27T14:27:41.663Z,20.61
2018-08-27T14:30:09.989Z,20.45
2018-08-27T14:32:38.300Z,20.85
2018-08-27T14:35:07.514Z,21.03
2018-08-27T14:37:35.801Z,21.10
2018-08-27T14:40:05.881Z,21.67
2018-08-27T14:42:34.218Z,21.03
2018-08-27T14:45:02.594Z,20.54
2018-08-27T14:47:30.895Z,20.11
2018-08-27T14:49:59.165Z,19.96
2018-08-27T14:52:27.488Z,20.36
2018-08-27T14:54:55.765Z,21.57
2018-08-27T14:57:24.014Z,21.50
2018-08-27T14:59:52.640Z,20.21
2018-08-27T15:02:20.973Z,20.05
2018-08-27T15:04:50.280Z,20.81
2018-08-27T15:07:18.617Z,21.54
2018-08-27T15:09:47.977Z,21.85
2018-08-27T15:12:17.293Z,21.88
2018-08-27T15:14:46.721Z,20.15
2018-08-27T15:17:15.084Z,19.92
2018-08-27T15:19:43.385Z,19.96
2018-08-27T15:22:12.165Z,19.92
2018-08-27T15:24:42.448Z,24.07
2018-08-27T15:27:11.745Z,23.40
2018-08-27T15:29:40.078Z,25.40
2018-08-27T15:32:09.006Z,27.75
2018-08-27T15:34:37.331Z,29.50
2018-08-27T15:37:05.664Z,30.17
2018-08-27T15:39:35.042Z,28.30
2018-08-27T15:42:04.386Z,26.26
2018-08-27T15:44:32.700Z,26.49
2018-08-27T15:47:01.255Z,23.90
2018-08-27T15:49:29.525Z,24.45
2018-08-27T15:51:57.854Z,23.46
2018-08-27T15:54:26.166Z,24.53
2018-08-27T15:56:54.481Z,24.34
2018-08-27T15:59:22.787Z,24.52
2018-08-27T16:01:51.183Z,23.86
2018-08-27T16:04:19.544Z,23.20
2018-08-27T16:06:47.869Z,23.22
2018-08-27T16:09:16.166Z,22.92
2018-08-27T16:11:45.525Z,22.77
2018-08-27T16:14:13.821Z,23.01
2018-08-27T16:16:42.168Z,21.47
2018-08-27T16:19:11.452Z,20.60
2018-08-27T16:21:39.793Z,20.35
2018-08-27T16:24:09.265Z,19.79
2018-08-27T16:26:40.630Z,19.40
2018-08-27T16:29:09.497Z,19.04
2018-08-27T16:31:37.769Z,18.93
2018-08-27T16:34:06.069Z,18.86
2018-08-27T16:36:35.589Z,18.81
2018-08-27T16:39:04.896Z,18.53
2018-08-27T16:41:34.254Z,18.05
2018-08-27T16:44:02.576Z,17.81
2018-08-27T16:46:30.901Z,17.64
2018-08-27T16:48:59.197Z,17.86
2018-08-27T16:51:27.674Z,17.92
2018-08-27T16:53:55.930Z,17.93
2018-08-27T16:56:24.229Z,18.01
2018-08-27T16:58:52.536Z,17.96
2018-08-27T17:01:20.808Z,17.80
2018-08-27T17:03:49.073Z,17.77
2018-08-27T17:06:17.623Z,17.88
2018-08-27T17:08:45.921Z,17.75
2018-08-27T17:11:14.205Z,17.38
2018-08-27T17:13:42.760Z,17.46
2018-08-27T17:16:11.237Z,17.50
2018-08-27T17:18:39.514Z,17.44
2018-08-27T17:21:07.909Z,17.67
2018-08-27T17:23:40.134Z,17.85
2018-08-27T17:26:08.565Z,17.80
2018-08-27T17:28:37.865Z,17.70
2018-08-27T17:31:06.628Z,17.60
2018-08-27T17:33:35.030Z,17.69
2018-08-27T17:36:03.517Z,17.57
2018-08-27T17:38:32.694Z,17.51
2018-08-27T17:41:01.002Z,17.43
2018-08-27T17:43:29.322Z,17.16
2018-08-27T17:45:59.695Z,17.18
2018-08-27T17:48:27.998Z,17.15
2018-08-27T17:50:56.296Z,16.96
2018-08-27T17:53:24.594Z,17.11
2018-08-27T17:55:53.441Z,17.00
2018-08-27T17:58:22.035Z,17.03
2018-08-27T18:00:55.190Z,16.96
2018-08-27T18:03:23.505Z,16.95
2018-08-27T18:05:51.770Z,16.89
2018-08-27T18:08:20.090Z,16.84
2018-08-27T18:10:48.355Z,16.80
2018-08-27T18:13:16.641Z,16.73
2018-08-27T18:15:44.905Z,16.66
2018-08-27T18:18:13.201Z,16.61
2018-08-27T18:20:41.497Z,16.55
2018-08-27T18:23:09.825Z,16.62
2018-08-27T18:25:38.111Z,16.52
2018-08-27T18:28:10.115Z,16.54
2018-08-27T18:30:40.108Z,16.44
2018-08-27T18:33:09.617Z,16.51
2018-08-27T18:35:37.924Z,16.44
2018-08-27T18:38:06.249Z,16.44
2018-08-27T18:40:35.219Z,16.43
2018-08-27T18:43:03.513Z,16.39
2018-08-27T18:45:31.819Z,16.43
2018-08-27T18:48:01.110Z,16.39
2018-08-27T18:50:29.574Z,16.31
2018-08-27T18:52:57.830Z,16.33
2018-08-27T18:55:26.129Z,16.36
2018-08-27T18:57:54.598Z,16.33
2018-08-27T19:00:22.904Z,16.25
2018-08-27T19:02:52.283Z,16.09
2018-08-27T19:05:20.612Z,16.12
2018-08-27T19:07:48.836Z,16.05
2018-08-27T19:10:17.197Z,16.04
2018-08-27T19:12:45.503Z,16.00
2018-08-27T19:15:13.777Z,15.93
2018-08-27T19:17:42.172Z,16.01
2018-08-27T19:20:10.401Z,15.95
2018-08-27T19:22:38.702Z,16.01
2018-08-27T19:25:07.376Z,16.00
2018-08-27T19:27:35.685Z,15.87
2018-08-27T19:30:04.287Z,15.87
2018-08-27T19:32:33.922Z,15.89
2018-08-27T19:35:03.273Z,15.88
2018-08-27T19:37:31.629Z,15.88
2018-08-27T19:39:59.892Z,15.77
2018-08-27T19:42:28.153Z,15.79
2018-08-27T19:44:56.501Z,15.69
2018-08-27T19:47:24.788Z,15.73
2018-08-27T19:49:53.057Z,15.66
2018-08-27T19:52:21.353Z,15.63
2018-08-27T19:54:49.655Z,15.55
2018-08-27T19:57:17.950Z,15.44
2018-08-27T19:59:47.226Z,15.51
2018-08-27T20:02:15.513Z,15.41
2018-08-27T20:04:43.975Z,15.45
2018-08-27T20:07:12.320Z,15.35
2018-08-27T20:09:41.693Z,15.28
2018-08-27T20:12:10.033Z,15.41
2018-08-27T20:14:38.313Z,15.39
2018-08-27T20:17:06.585Z,15.35
2018-08-27T20:19:34.857Z,15.32
2018-08-27T20:22:03.305Z,15.28
2018-08-27T20:24:31.578Z,15.32
2018-08-27T20:26:59.877Z,15.32
2018-08-27T20:29:28.152Z,15.15
2018-08-27T20:31:56.435Z,15.24
2018-08-27T20:34:24.781Z,15.30
2018-08-27T20:36:53.709Z,15.21
2018-08-27T20:39:22.101Z,15.18
2018-08-27T20:41:50.309Z,15.26
2018-08-27T20:44:18.611Z,15.22
2018-08-27T20:46:46.956Z,15.16
2018-08-27T20:49:15.222Z,15.15
2018-08-27T20:51:43.529Z,15.17
2018-08-27T20:54:11.889Z,15.10
2018-08-27T20:56:40.215Z,15.34
2018-08-27T20:59:08.483Z,15.23
2018-08-27T21:01:36.801Z,15.22
2018-08-27T21:04:05.119Z,15.28
2018-08-27T21:06:33.396Z,15.29
2018-08-27T21:09:02.745Z,15.22
2018-08-27T21:11:31.091Z,15.22
2018-08-27T21:14:30.921Z,15.29
2018-08-27T21:16:59.244Z,15.34
2018-08-27T21:19:27.505Z,15.40
2018-08-27T21:21:55.789Z,15.52
2018-08-27T21:24:24.081Z,15.55
2018-08-27T21:27:56.426Z,15.66
2018-08-27T21:30:24.709Z,15.61
2018-08-27T21:32:53.006Z,15.69
2018-08-27T21:35:21.286Z,15.76
2018-08-27T21:37:49.577Z,15.79
2018-08-27T21:40:17.855Z,15.68
2018-08-27T21:42:46.143Z,15.52
2018-08-27T21:45:14.421Z,15.75
2018-08-27T21:47:42.713Z,15.81
2018-08-27T21:50:10.981Z,15.87
2018-08-27T21:52:39.240Z,15.84
2018-08-27T21:55:07.565Z,15.72
2018-08-27T21:57:35.802Z,15.79
2018-08-27T22:00:06.021Z,15.69
2018-08-27T22:02:39.351Z,15.63
2018-08-27T22:05:07.930Z,15.70
2018-08-27T22:07:36.195Z,15.82
2018-08-27T22:10:04.540Z,15.83
2018-08-27T22:12:32.808Z,15.91
2018-08-27T22:15:01.172Z,16.00
2018-08-27T22:17:29.463Z,15.99
2018-08-27T22:19:57.857Z,16.04
2018-08-27T22:22:26.219Z,16.18
2018-08-27T22:24:54.509Z,15.87
2018-08-27T22:27:22.805Z,15.92
2018-08-27T22:29:51.093Z,15.81
2018-08-27T22:32:19.605Z,15.81
2018-08-27T22:34:47.877Z,15.82
2018-08-27T22:37:16.257Z,15.68
2018-08-27T22:39:44.549Z,15.62
2018-08-27T22:42:12.873Z,15.67
2018-08-27T22:44:41.117Z,15.46
2018-08-27T22:47:11.090Z,15.38
2018-08-27T22:49:41.285Z,15.53
2018-08-27T22:52:09.630Z,15.39
2018-08-27T22:54:37.903Z,15.50
2018-08-27T22:57:06.484Z,15.34
2018-08-27T22:59:34.931Z,15.22
2018-08-27T23:02:03.484Z,15.27
2018-08-27T23:04:37.021Z,15.14
2018-08-27T23:07:05.426Z,15.06
2018-08-27T23:09:33.862Z,14.99
2018-08-27T23:12:02.153Z,14.89
2018-08-27T23:14:30.433Z,14.91
2018-08-27T23:16:58.769Z,14.93
2018-08-27T23:19:27.041Z,14.93
2018-08-27T23:21:55.428Z,14.90
2018-08-27T23:24:24.737Z,14.82
2018-08-27T23:26:53.033Z,14.75
2018-08-27T23:29:21.459Z,14.70
2018-08-27T23:31:49.761Z,14.72
2018-08-27T23:34:18.153Z,14.57
2018-08-27T23:36:46.397Z,14.69
2018-08-27T23:39:15.001Z,14.66
2018-08-27T23:41:43.269Z,14.77
2018-08-27T23:44:12.595Z,14.87
2018-08-27T23:46:41.833Z,14.93
2018-08-27T23:49:10.114Z,14.81
2018-08-27T23:51:38.412Z,14.98
2018-08-27T23:54:06.797Z,14.76
2018-08-27T23:56:35.070Z,14.80
2018-08-27T23:59:03.353Z,14.75
